Time;durP1;ratioP1;P1;durP2;ratioP2;P2;SDS_P1;SDS_P2;PMS_P1;PMS_P2;Temp;Humidity;BMP_temperature;BMP_pressure;BME280_temperature;BME280_humidity;BME280_pressure;Samples;Min_cycle;Max_cycle;Signal;HPM_P1;HPM_P2
2021/01/21 00:00:41;;;;;;;249.95;131.95;;;;;;;0.21;77.93;101126.97;5030559;28;20038;-78
2021/01/21 00:03:22;;;;;;;246.07;131.85;;;;;;;0.36;77.97;101125.78;5035744;28;20029;-77
2021/01/21 00:05:55;;;;;;;224.90;124.65;;;;;;;0.18;78.07;101126.88;5035345;28;20076;-78
2021/01/21 00:08:21;;;;;;;222.27;119.80;;;;;;;0.38;78.64;101131.69;5035409;28;20083;-78
2021/01/21 00:11:32;;;;;;;207.35;116.13;;;;;;;0.59;77.13;101126.50;5035251;28;20021;-78
2021/01/21 00:14:24;;;;;;;207.32;113.63;;;;;;;0.18;78.55;101121.88;5034130;28;20037;-78
2021/01/21 00:17:18;;;;;;;199.18;111.20;;;;;;;0.00;79.26;101122.13;5035465;28;20487;-78
2021/01/21 00:19:43;;;;;;;194.27;105.80;;;;;;;0.20;77.59;101122.78;5033702;28;20036;-78
2021/01/21 00:22:25;;;;;;;191.82;110.20;;;;;;;-0.01;79.19;101122.94;5035151;28;20030;-78
2021/01/21 00:24:59;;;;;;;;;;;;;;;0.28;78.12;101129.69;5035821;28;20065;-79
2021/01/21 00:27:54;;;;;;;185.35;100.45;;;;;;;-0.13;79.23;101142.50;5034001;28;20004;-78
2021/01/21 00:30:27;;;;;;;186.23;102.90;;;;;;;-0.18;79.69;101136.53;5035088;28;20045;-78
2021/01/21 00:32:55;;;;;;;181.63;98.70;;;;;;;0.12;79.00;101136.69;5034175;28;20021;-79
2021/01/21 00:35:28;;;;;;;188.15;103.03;;;;;;;0.02;79.67;101138.00;5034133;28;20029;-79
2021/01/21 00:38:25;;;;;;;186.93;103.00;;;;;;;0.28;78.66;101143.88;5033474;28;20584;-79
2021/01/21 00:41:15;;;;;;;186.40;103.30;;;;;;;0.23;78.38;101146.22;5034909;28;20036;-78
2021/01/21 00:43:49;;;;;;;182.40;101.45;;;;;;;-0.12;77.72;101136.72;5035096;28;20029;-78
2021/01/21 00:46:30;;;;;;;158.93;87.85;;;;;;;-0.02;78.87;101137.06;5033770;28;20065;-78
2021/01/21 00:49:09;;;;;;;130.18;74.53;;;;;;;-0.04;78.47;101126.16;5033689;28;20073;-78
2021/01/21 00:51:46;;;;;;;137.57;78.63;;;;;;;-0.49;79.71;101109.63;5033766;28;20034;-79
2021/01/21 00:58:11;;;;;;;112.90;60.88;;;;;;;-0.38;80.12;101150.84;5034368;28;20048;-79
2021/01/21 01:00:51;;;;;;;150.75;80.97;;;;;;;-0.38;80.08;101139.97;5033486;28;20038;-77
2021/01/21 01:03:52;;;;;;;144.05;77.25;;;;;;;-0.28;79.94;101144.50;5033491;28;20025;-79
2021/01/21 01:06:18;;;;;;;136.13;73.38;;;;;;;0.00;79.72;101137.13;5034371;28;20029;-77
2021/01/21 01:08:53;;;;;;;124.78;67.32;;;;;;;-0.37;78.48;101124.19;5034995;28;20504;-78
2021/01/21 01:11:22;;;;;;;114.28;64.63;;;;;;;-0.12;78.73;101132.56;5033261;28;20029;-78
2021/01/21 01:13:48;;;;;;;120.60;66.20;;;;;;;-0.32;79.48;101128.53;5039756;28;20040;-78
2021/01/21 01:16:34;;;;;;;113.35;62.15;;;;;;;-0.34;80.26;101130.16;5040972;28;20418;-79
2021/01/21 01:19:15;;;;;;;109.68;61.42;;;;;;;-0.40;79.91;101129.09;5033481;28;20098;-77
2021/01/21 01:22:09;;;;;;;115.25;60.80;;;;;;;-0.34;78.71;101132.66;5032899;28;20080;-79
2021/01/21 01:24:35;;;;;;;110.05;60.95;;;;;;;-0.25;78.62;101117.09;5033044;28;20486;-78
2021/01/21 01:27:07;;;;;;;113.32;62.78;;;;;;;-0.66;80.24;101135.66;5033892;28;20099;-80
2021/01/21 01:29:55;;;;;;;;;;;;;;;-0.45;79.33;101138.91;5035296;28;20045;-80
2021/01/21 01:32:59;;;;;;;132.13;69.50;;;;;;;-0.34;78.99;101139.28;5033174;28;20014;-79
2021/01/21 01:35:37;;;;;;;118.50;63.92;;;;;;;-0.52;79.75;101124.53;5032797;28;20561;-79
2021/01/21 01:38:18;;;;;;;115.53;57.72;;;;;;;-0.54;79.61;101126.13;5032825;28;20025;-77
2021/01/21 01:40:59;;;;;;;101.78;51.72;;;;;;;-0.67;80.68;101123.97;5032602;28;20029;-77
2021/01/21 01:43:47;;;;;;;94.40;48.60;;;;;;;-0.68;79.70;101134.78;5034115;28;20025;-77
2021/01/21 01:46:12;;;;;;;86.30;45.25;;;;;;;-0.59;80.03;101136.72;5033741;28;20032;-78
2021/01/21 01:48:40;;;;;;;87.03;43.50;;;;;;;-0.90;80.68;101130.66;5032668;28;20514;-78
2021/01/21 01:51:43;;;;;;;78.05;41.17;;;;;;;-0.99;80.63;101126.97;5032781;28;20029;-78
2021/01/21 01:54:14;;;;;;;80.20;39.28;;;;;;;-1.02;81.54;101126.84;5033725;28;20026;-76
2021/01/21 01:56:46;;;;;;;76.22;39.22;;;;;;;-0.95;80.59;101117.16;5032555;28;20037;-77
2021/01/21 01:59:24;;;;;;;73.38;38.15;;;;;;;-0.67;80.11;101120.66;5032646;28;20043;-77
2021/01/21 02:01:59;;;;;;;68.20;36.17;;;;;;;-0.76;80.44;101108.69;5032354;28;20030;-77
2021/01/21 02:04:26;;;;;;;68.80;36.65;;;;;;;-0.72;80.86;101124.59;5033266;28;20431;-77
2021/01/21 02:06:55;;;;;;;69.90;35.95;;;;;;;-0.81;79.49;101105.16;5032223;28;20029;-77
2021/01/21 02:09:23;;;;;;;72.13;37.10;;;;;;;-0.72;80.53;101122.97;5032163;28;20033;-77
2021/01/21 02:12:02;;;;;;;72.45;38.70;;;;;;;-0.35;79.12;101108.47;5032461;28;20025;-77
2021/01/21 02:18:26;;;;;;;68.40;34.80;;;;;;;-0.57;80.49;101113.50;5033556;28;20052;-77
2021/01/21 02:21:03;;;;;;;71.10;36.80;;;;;;;-0.56;81.08;101110.25;5036054;28;20060;-79
2021/01/21 02:27:03;;;;;;;72.47;39.00;;;;;;;-0.42;80.63;101100.72;5033412;28;20044;-78
2021/01/21 02:29:59;;;;;;;75.47;37.90;;;;;;;-0.66;79.76;101105.72;5031900;28;20041;-78
2021/01/21 02:35:51;;;;;;;55.45;27.45;;;;;;;-0.75;79.18;101105.38;5038713;28;20446;-78
2021/01/21 02:38:21;;;;;;;69.43;36.92;;;;;;;-0.98;80.91;101108.72;5040038;28;20026;-77
2021/01/21 02:40:51;;;;;;;77.20;37.67;;;;;;;-0.72;79.09;101109.63;5037689;28;20032;-77
2021/01/21 02:43:25;;;;;;;69.32;37.90;;;;;;;-0.85;80.58;101103.34;5033635;28;20026;-76
2021/01/21 02:46:31;;;;;;;68.00;36.72;;;;;;;-0.75;78.83;101107.88;5032804;28;20036;-75
2021/01/21 02:49:11;;;;;;;64.03;33.03;;;;;;;-1.08;80.23;101074.25;5033386;28;20045;-78
2021/01/21 02:55:32;;;;;;;47.28;23.75;;;;;;;-0.77;79.90;101114.44;5032639;28;20065;-77
2021/01/21 03:01:19;;;;;;;61.42;32.33;;;;;;;-0.95;81.35;101107.16;5032322;28;20052;-76
2021/01/21 03:04:14;;;;;;;62.78;33.40;;;;;;;-0.92;80.72;101116.41;5032292;28;20467;-77
2021/01/21 03:06:49;;;;;;;59.92;31.77;;;;;;;-1.13;81.72;101095.69;5030933;28;20434;-76
2021/01/21 03:09:58;;;;;;;61.00;31.75;;;;;;;-0.88;80.38;101114.09;5032008;28;20040;-77
2021/01/21 03:13:15;;;;;;;64.40;33.53;;;;;;;-1.30;81.84;101129.97;5032080;28;20025;-76
2021/01/21 03:15:55;;;;;;;60.85;31.45;;;;;;;-1.50;83.02;101120.88;5030876;28;20037;-76
2021/01/21 03:18:22;;;;;;;58.50;30.45;;;;;;;-1.41;81.75;101122.88;5032421;28;20505;-77
2021/01/21 03:20:55;;;;;;;59.65;31.85;;;;;;;-1.74;83.34;101104.13;5032032;28;20045;-77
2021/01/21 03:23:28;;;;;;;59.70;31.52;;;;;;;-1.78;82.40;101106.47;5031894;28;20025;-77
2021/01/21 03:26:06;;;;;;;56.95;29.80;;;;;;;-1.57;83.05;101118.94;5031021;28;20121;-77
2021/01/21 03:28:31;;;;;;;53.70;29.17;;;;;;;-1.59;82.33;101104.72;5032149;28;20052;-77
2021/01/21 03:31:06;;;;;;;60.63;31.13;;;;;;;-1.52;82.42;101121.59;5031065;28;20514;-77
2021/01/21 03:33:39;;;;;;;62.13;31.83;;;;;;;-1.46;82.37;101120.19;5031146;28;20026;-78
2021/01/21 03:36:19;;;;;;;60.60;30.98;;;;;;;-1.31;82.12;101115.81;5031900;28;20066;-77
2021/01/21 03:38:45;;;;;;;63.40;31.38;;;;;;;-1.40;82.58;101114.59;5035926;28;20025;-78
2021/01/21 03:41:15;;;;;;;56.60;30.15;;;;;;;-1.59;82.17;101103.06;5034925;28;20099;-78
2021/01/21 03:43:41;;;;;;;54.70;29.58;;;;;;;-1.52;82.90;101114.13;5035328;28;20026;-78
2021/01/21 03:46:17;;;;;;;58.78;30.13;;;;;;;-1.42;81.28;101123.66;5035119;28;20033;-77
2021/01/21 03:48:44;;;;;;;59.42;29.52;;;;;;;-1.39;82.34;101123.78;5038090;28;20029;-76
2021/01/21 03:51:17;;;;;;;60.00;30.10;;;;;;;-1.38;81.83;101108.00;5044309;28;20116;-78
2021/01/21 03:57:10;;;;;;;53.43;24.40;;;;;;;-1.40;82.95;101122.91;5036619;28;20091;-75
2021/01/21 04:00:03;;;;;;;60.75;31.15;;;;;;;-1.30;80.81;101126.59;5044021;28;20065;-78
2021/01/21 04:02:31;;;;;;;59.47;30.58;;;;;;;-1.29;82.13;101128.31;5034717;28;20044;-78
2021/01/21 04:04:57;;;;;;;60.25;30.58;;;;;;;-1.49;82.75;101126.72;5034568;28;20118;-78
2021/01/21 04:07:43;;;;;;;60.65;30.95;;;;;;;-1.41;81.63;101132.84;5034550;28;20041;-80
2021/01/21 04:10:21;;;;;;;59.70;31.65;;;;;;;-1.39;82.65;101134.63;5034726;28;20030;-81
2021/01/21 04:13:25;;;;;;;66.05;32.88;;;;;;;-1.18;81.19;101134.56;5035676;28;20018;-80
2021/01/21 04:16:06;;;;;;;66.15;33.88;;;;;;;-1.43;82.17;101131.94;5035617;28;20029;-81
2021/01/21 04:18:48;;;;;;;66.50;32.88;;;;;;;-1.49;82.11;101109.25;5034123;28;20159;-78
2021/01/21 04:21:47;;;;;;;;;;;;;;;-1.32;82.25;101128.19;5035755;28;20095;-80
2021/01/21 04:24:27;;;;;;;58.15;28.67;;;;;;;-1.49;82.61;101126.72;5035205;28;19917;-77
2021/01/21 04:27:08;;;;;;;64.38;31.38;;;;;;;-1.46;82.70;101127.66;5034299;28;20029;-78
2021/01/21 04:29:47;;;;;;;63.22;31.15;;;;;;;-1.60;83.01;101110.47;5035762;28;20029;-78
2021/01/21 04:32:15;;;;;;;62.72;31.23;;;;;;;-1.41;81.99;101121.22;5033902;28;20041;-79
2021/01/21 04:35:14;;;;;;;60.30;32.28;;;;;;;-1.18;82.04;101134.56;5034191;28;20508;-78
2021/01/21 04:38:15;;;;;;;61.03;31.42;;;;;;;-1.45;81.55;101129.38;5033985;28;20029;-77
2021/01/21 04:40:50;;;;;;;67.50;31.13;;;;;;;-1.55;82.30;101116.50;5035020;28;20576;-79
2021/01/21 04:43:26;;;;;;;61.40;31.90;;;;;;;-1.45;82.09;101144.34;5035153;28;20063;-77
2021/01/21 04:46:09;;;;;;;62.35;30.90;;;;;;;-1.67;83.22;101141.81;5034835;28;20026;-78
2021/01/21 04:48:51;;;;;;;61.50;30.98;;;;;;;-1.78;84.34;101130.53;5032324;28;20034;-78
2021/01/21 04:51:28;;;;;;;62.28;32.17;;;;;;;-1.70;83.10;101138.34;5033615;28;20561;-77
2021/01/21 04:53:58;;;;;;;63.67;31.23;;;;;;;-1.45;82.61;101141.00;5034712;28;20114;-79
2021/01/21 04:56:38;;;;;;;60.50;31.08;;;;;;;-1.99;83.19;101130.53;5034093;28;20049;-78
2021/01/21 04:59:16;;;;;;;59.75;30.23;;;;;;;-1.86;83.42;101141.84;5034525;28;20103;-77
2021/01/21 05:01:52;;;;;;;58.95;31.40;;;;;;;-1.63;83.31;101136.16;5033053;28;20038;-76
2021/01/21 05:04:26;;;;;;;64.70;32.75;;;;;;;-1.56;82.34;101135.59;5032737;28;20475;-76
2021/01/21 05:07:42;;;;;;;68.18;34.63;;;;;;;-1.51;81.15;101153.22;5034123;28;20491;-76
2021/01/21 05:10:36;;;;;;;62.00;31.98;;;;;;;-1.12;81.29;101157.22;5033221;28;20040;-75
2021/01/21 05:13:12;;;;;;;57.03;30.35;;;;;;;-1.79;82.71;101147.16;5034375;28;20037;-77
2021/01/21 05:15:47;;;;;;;62.17;31.70;;;;;;;-1.69;81.86;101150.00;5032481;28;20029;-81
2021/01/21 05:18:13;;;;;;;63.53;32.72;;;;;;;-1.74;82.27;101162.25;5052174;28;20022;-77
2021/01/21 05:20:40;;;;;;;64.88;33.97;;;;;;;-1.64;81.60;101136.09;5043797;28;20045;-78
2021/01/21 05:23:08;;;;;;;69.05;35.47;;;;;;;-1.66;81.64;101157.63;5034016;28;20037;-76
2021/01/21 05:25:34;;;;;;;69.47;34.47;;;;;;;-1.33;81.93;101162.28;5033754;28;20025;-78
2021/01/21 05:28:26;;;;;;;64.55;33.13;;;;;;;-1.83;82.57;101165.25;5032566;28;20041;-77
2021/01/21 05:31:22;;;;;;;59.28;31.15;;;;;;;-1.73;81.19;101163.13;5032784;28;20544;-77
2021/01/21 05:33:51;;;;;;;60.65;30.90;;;;;;;-1.64;81.78;101163.50;5032160;28;20030;-79
2021/01/21 05:36:23;;;;;;;59.55;30.23;;;;;;;-1.76;81.93;101146.41;5033915;28;20463;-76
2021/01/21 05:41:41;;;;;;;64.47;31.95;;;;;;;-1.71;82.79;101169.03;5035385;28;19916;-80
2021/01/21 05:44:08;;;;;;;69.72;34.40;;;;;;;-1.80;82.97;101165.38;5034750;28;20075;-77
2021/01/21 05:46:35;;;;;;;71.25;35.33;;;;;;;-1.87;82.95;101155.97;5038259;28;20022;-77
2021/01/21 05:49:03;;;;;;;68.22;34.95;;;;;;;-1.80;82.71;101172.84;5038675;28;20087;-77
2021/01/21 05:51:29;;;;;;;69.80;35.30;;;;;;;-1.53;81.88;101182.22;5040366;28;20018;-79
2021/01/21 05:53:56;;;;;;;66.85;34.08;;;;;;;-1.46;81.52;101157.59;5044781;28;20034;-79
2021/01/21 05:56:49;;;;;;;64.03;35.85;;;;;;;-1.37;81.51;101182.03;5041371;28;20028;-80
2021/01/21 05:59:39;;;;;;;74.68;36.75;;;;;;;-1.37;82.48;101182.03;5039624;28;20037;-80
2021/01/21 06:02:10;;;;;;;72.95;37.90;;;;;;;-1.25;81.08;101175.84;5034302;28;20033;-80
2021/01/21 06:04:58;;;;;;;74.65;36.55;;;;;;;-1.19;81.86;101185.25;5034052;28;20021;-80
2021/01/21 06:10:46;;;;;;;47.67;24.30;;;;;;;-1.22;80.84;101167.66;5033535;28;20261;-77
2021/01/21 06:13:20;;;;;;;67.25;33.33;;;;;;;-0.76;80.00;101191.03;5032745;28;20424;-79
2021/01/21 06:15:48;;;;;;;59.85;31.35;;;;;;;-0.54;78.51;101183.53;5039621;28;20056;-80
2021/01/21 06:18:38;;;;;;;65.65;31.88;;;;;;;-0.52;78.68;101186.09;5044621;28;20033;-78
2021/01/21 06:21:04;;;;;;;64.43;31.58;;;;;;;-0.74;79.79;101173.63;5037949;28;20046;-77
2021/01/21 06:23:34;;;;;;;69.53;35.08;;;;;;;-0.53;78.75;101192.72;5036373;28;20112;-81
2021/01/21 06:26:46;;;;;;;67.30;35.70;;;;;;;-0.16;77.08;101188.22;5033862;28;20036;-80
2021/01/21 06:29:26;;;;;;;65.78;34.95;;;;;;;-0.24;78.49;101191.25;5032351;28;20038;-80
2021/01/21 06:32:14;;;;;;;64.45;34.28;;;;;;;0.10;76.26;101180.75;5032395;28;20091;-79
2021/01/21 06:38:17;;;;;;;67.43;34.78;;;;;;;-0.18;77.87;101188.97;5035133;28;20033;-80
2021/01/21 06:40:53;;;;;;;64.88;35.25;;;;;;;0.12;76.99;101174.16;5045322;28;20036;-80
2021/01/21 06:43:32;;;;;;;71.22;37.88;;;;;;;0.26;77.06;101180.47;5033254;28;20040;-78
2021/01/21 06:46:36;;;;;;;73.07;38.88;;;;;;;0.45;75.43;101178.63;5045391;28;20033;-78
2021/01/21 06:49:13;;;;;;;76.65;38.78;;;;;;;1.22;74.51;101167.59;5031705;28;20032;-78
2021/01/21 06:52:00;;;;;;;84.60;41.70;;;;;;;0.88;73.33;101179.13;5031503;28;20053;-78
2021/01/21 06:54:50;;;;;;;71.57;39.40;;;;;;;0.89;73.39;101172.47;5032425;28;20104;-79
2021/01/21 06:57:40;;;;;;;79.10;42.15;;;;;;;0.78;73.98;101153.78;5032561;28;20402;-79
2021/01/21 07:03:30;;;;;;;83.15;43.45;;;;;;;1.33;72.36;101127.03;5032278;28;20127;-81
2021/01/21 07:06:42;;;;;;;76.15;42.33;;;;;;;1.50;72.69;101168.44;5032483;28;20036;-81
2021/01/21 07:12:29;;;;;;;103.97;56.58;;;;;;;1.76;72.21;101161.63;5032101;28;20099;-79
2021/01/21 07:15:08;;;;;;;108.25;56.30;;;;;;;1.65;71.83;101157.94;5032283;28;20470;-80
2021/01/21 07:27:31;;;;;;;106.35;55.80;;;;;;;1.84;71.69;101186.88;5032041;28;20533;-80
2021/01/21 07:33:21;;;;;;;111.23;59.93;;;;;;;1.36;74.16;101178.84;5032469;28;20067;-80
2021/01/21 07:36:36;;;;;;;105.28;54.05;;;;;;;1.72;72.90;101192.41;5032285;28;20482;-80
2021/01/21 07:39:46;;;;;;;79.75;41.08;;;;;;;1.74;73.25;101181.59;5032171;28;20029;-80
2021/01/21 07:42:38;;;;;;;72.80;39.47;;;;;;;1.66;72.93;101188.06;5030981;28;20088;-82
2021/01/21 07:45:16;;;;;;;69.82;36.20;;;;;;;1.91;73.78;101188.72;5031837;28;20021;-81
2021/01/21 07:47:46;;;;;;;76.57;37.20;;;;;;;1.82;73.14;101186.84;5032037;28;20029;-80
2021/01/21 07:50:49;;;;;;;70.72;37.88;;;;;;;2.23;72.81;101186.25;5030705;28;20045;-79
2021/01/21 07:53:22;;;;;;;65.22;36.28;;;;;;;1.56;75.86;101180.25;5031776;28;20543;-80
2021/01/21 07:55:53;;;;;;;62.70;36.20;;;;;;;2.22;73.99;101182.00;5030995;28;20025;-80
2021/01/21 07:58:37;;;;;;;60.72;34.10;;;;;;;2.59;71.35;101183.78;5031237;28;20080;-80
2021/01/21 08:01:10;;;;;;;57.95;33.20;;;;;;;2.27;72.95;101162.06;5042588;28;20052;-79
2021/01/21 08:03:53;;;;;;;58.67;33.75;;;;;;;2.36;73.37;101182.34;5037326;28;20116;-80
2021/01/21 08:06:53;;;;;;;58.63;33.60;;;;;;;2.54;71.80;101186.16;5031827;28;20021;-80
2021/01/21 08:09:48;;;;;;;57.30;32.55;;;;;;;2.66;71.26;101180.56;5030754;28;20026;-79
2021/01/21 08:12:25;;;;;;;61.70;34.45;;;;;;;2.41;73.14;101178.31;5031709;28;20044;-78
2021/01/21 08:18:15;;;;;;;92.30;48.87;;;;;;;3.21;69.88;101191.03;5031874;28;20040;-78
2021/01/21 08:20:41;;;;;;;90.88;49.72;;;;;;;3.58;68.15;101184.25;5030454;28;21043;-77
2021/01/21 08:23:10;;;;;;;84.50;46.85;;;;;;;3.75;68.04;101186.25;5033876;28;20029;-78
2021/01/21 08:26:31;;;;;;;72.60;41.40;;;;;;;3.79;67.96;101189.66;5035377;28;20041;-78
2021/01/21 08:32:37;;;;;;;110.35;64.45;;;;;;;3.67;67.75;101202.00;5035642;28;20981;-78
2021/01/21 08:38:30;;;;;;;132.75;71.63;;;;;;;3.27;69.85;101198.69;5035244;28;20044;-77
2021/01/21 08:41:14;;;;;;;118.50;66.78;;;;;;;3.58;68.80;101202.69;5033908;28;20090;-79
2021/01/21 08:43:46;;;;;;;108.40;62.50;;;;;;;3.83;66.33;101182.22;5033687;28;20071;-78
2021/01/21 08:46:29;;;;;;;110.00;61.53;;;;;;;3.41;67.70;101157.09;5033931;28;20503;-79
2021/01/21 08:49:08;;;;;;;105.10;59.47;;;;;;;3.93;66.12;101194.16;5035177;28;20025;-78
2021/01/21 08:51:41;;;;;;;99.72;55.38;;;;;;;4.00;65.72;101190.09;5035004;28;20483;-78
2021/01/21 08:54:20;;;;;;;94.53;56.60;;;;;;;3.78;66.38;101188.84;5035038;28;20021;-77
2021/01/21 08:57:23;;;;;;;96.47;56.30;;;;;;;3.80;66.08;101188.88;5033669;28;20025;-77
2021/01/21 09:03:59;;;;;;;163.45;88.75;;;;;;;4.21;65.41;101175.34;5034900;28;20174;-77
2021/01/21 09:06:41;;;;;;;127.40;70.88;;;;;;;4.43;63.95;101157.28;5033572;28;20091;-76
2021/01/21 09:09:07;;;;;;;103.68;66.28;;;;;;;4.52;63.33;101164.94;5033296;28;20034;-78
2021/01/21 09:11:46;;;;;;;94.82;57.88;;;;;;;4.35;63.44;101158.81;5034564;28;20033;-78
2021/01/21 09:14:49;;;;;;;108.28;67.30;;;;;;;4.38;63.93;101163.88;5033322;28;20414;-78
2021/01/21 09:17:20;;;;;;;130.52;85.38;;;;;;;4.43;63.33;101136.28;5033590;28;20040;-78
2021/01/21 09:19:45;;;;;;;145.20;92.57;;;;;;;4.64;63.77;101139.09;5031982;28;20116;-76
2021/01/21 09:22:16;;;;;;;143.63;93.32;;;;;;;4.60;63.08;101155.84;5034834;28;20060;-77
2021/01/21 09:25:07;;;;;;;130.60;82.22;;;;;;;4.68;63.93;101149.25;5047962;28;20029;-78
2021/01/21 09:27:55;;;;;;;138.05;88.28;;;;;;;4.97;63.93;101150.50;5034201;28;20072;-78
2021/01/21 09:30:45;;;;;;;131.68;87.32;;;;;;;5.04;62.94;101144.72;5033136;28;20033;-79
2021/01/21 09:33:14;;;;;;;134.05;86.57;;;;;;;4.94;63.74;101140.41;5034025;28;20068;-79
2021/01/21 09:36:28;;;;;;;160.82;98.40;;;;;;;5.13;63.94;101149.88;5032411;28;20013;-78
2021/01/21 09:39:02;;;;;;;127.78;83.68;;;;;;;5.21;62.73;101128.13;5033088;28;20489;-78
2021/01/21 09:41:36;;;;;;;85.70;51.97;;;;;;;5.30;62.43;101137.50;5033321;28;20083;-79
2021/01/21 09:44:02;;;;;;;96.68;55.53;;;;;;;5.57;62.88;101135.28;5045367;28;20026;-78
2021/01/21 09:46:30;;;;;;;60.92;39.20;;;;;;;5.24;62.39;101134.91;5037314;28;20061;-75
2021/01/21 09:48:55;;;;;;;57.22;35.70;;;;;;;5.63;61.70;101131.97;5032808;28;20091;-79
2021/01/21 09:52:14;;;;;;;65.00;39.60;;;;;;;5.79;61.04;101132.16;5032572;28;20487;-80
2021/01/21 09:54:40;;;;;;;68.03;40.05;;;;;;;5.79;61.19;101128.78;5033777;28;20392;-79
2021/01/21 09:57:07;;;;;;;57.55;37.42;;;;;;;5.83;58.76;101130.50;5032540;28;20029;-79
2021/01/21 09:59:37;;;;;;;46.25;28.85;;;;;;;5.97;59.47;101129.00;5033041;28;20039;-80
2021/01/21 10:05:24;;;;;;;54.08;34.80;;;;;;;6.08;61.73;101099.66;5033792;28;20040;-77
2021/01/21 10:08:02;;;;;;;56.10;34.55;;;;;;;6.04;59.97;101098.75;5033213;28;20029;-80
2021/01/21 10:13:49;;;;;;;53.25;31.70;;;;;;;6.65;58.35;101104.28;5037828;28;20091;-78
2021/01/21 10:16:17;;;;;;;42.95;23.70;;;;;;;6.51;59.11;101083.97;5038729;28;20033;-78
2021/01/21 10:18:50;;;;;;;33.80;20.77;;;;;;;6.59;58.49;101089.94;5038624;28;20091;-78
2021/01/21 10:21:16;;;;;;;32.88;20.73;;;;;;;7.19;55.82;101084.28;5037209;28;20045;-77
2021/01/21 10:23:41;;;;;;;40.92;23.23;;;;;;;7.17;56.49;101078.38;5034571;28;20384;-77
2021/01/21 10:26:07;;;;;;;36.63;21.77;;;;;;;7.17;56.77;101080.09;5036192;28;20037;-78
2021/01/21 10:28:34;;;;;;;32.30;20.17;;;;;;;7.08;56.30;101077.50;5033478;28;20549;-77
2021/01/21 10:31:07;;;;;;;27.52;17.23;;;;;;;6.95;55.80;101054.72;5032195;28;20028;-77
2021/01/21 10:36:54;;;;;;;28.33;17.03;;;;;;;7.17;55.72;101054.81;5033248;28;20215;-77
2021/01/21 10:40:00;;;;;;;34.42;20.02;;;;;;;7.03;56.29;101064.03;5032523;28;20025;-79
2021/01/21 10:42:26;;;;;;;43.53;23.40;;;;;;;7.70;53.87;101050.69;5034892;28;20036;-79
2021/01/21 10:44:58;;;;;;;29.20;17.50;;;;;;;7.69;54.20;101044.78;5043190;28;20395;-78
2021/01/21 10:47:33;;;;;;;;;;;;;;;7.55;55.05;101041.41;5032243;28;20030;-78
2021/01/21 10:50:11;;;;;;;28.13;16.42;;;;;;;7.74;57.37;101037.19;5031371;28;19920;-78
2021/01/21 10:52:57;;;;;;;28.92;19.33;;;;;;;7.96;52.31;101032.97;5032550;28;20597;-79
2021/01/21 10:55:54;;;;;;;48.03;30.10;;;;;;;7.96;53.28;101031.31;5032598;28;20039;-78
2021/01/21 10:58:54;;;;;;;25.63;15.52;;;;;;;8.04;51.40;101031.28;5032873;28;20045;-79
2021/01/21 11:01:37;;;;;;;29.52;20.77;;;;;;;7.70;52.54;101018.66;5032466;28;20537;-79
2021/01/21 11:04:04;;;;;;;26.80;16.65;;;;;;;7.89;52.84;101017.78;5031622;28;20078;-79
2021/01/21 11:07:00;;;;;;;31.88;20.95;;;;;;;8.06;52.29;101020.28;5032267;28;20028;-81
2021/01/21 11:09:39;;;;;;;35.30;21.60;;;;;;;8.01;52.76;101008.50;5035914;28;20044;-79
2021/01/21 11:15:26;;;;;;;31.60;19.63;;;;;;;8.37;52.39;100986.53;5032517;28;20048;-76
2021/01/21 11:18:28;;;;;;;28.88;19.60;;;;;;;8.02;53.23;101008.50;5031523;28;20033;-80
2021/01/21 11:20:53;;;;;;;27.25;16.52;;;;;;;8.04;53.81;101006.81;5029188;28;20053;-81
2021/01/21 11:23:41;;;;;;;25.23;15.45;;;;;;;8.50;53.63;100993.22;5031989;28;20523;-79
2021/01/21 11:26:58;;;;;;;25.10;16.85;;;;;;;8.47;51.60;100993.25;5032315;28;20064;-79
2021/01/21 11:30:13;;;;;;;24.35;15.98;;;;;;;8.71;49.32;100988.06;5032658;28;20033;-79
2021/01/21 11:36:00;;;;;;;22.88;12.80;;;;;;;8.59;50.00;100972.94;5032355;28;20142;-83
2021/01/21 11:41:47;;;;;;;24.63;16.30;;;;;;;9.03;49.82;100965.09;5032416;28;20103;-80
2021/01/21 11:44:21;;;;;;;23.88;15.98;;;;;;;8.75;49.76;100953.44;5030885;28;20038;-81
2021/01/21 11:46:54;;;;;;;20.85;13.38;;;;;;;8.91;49.45;100961.78;5032124;28;20026;-81
2021/01/21 11:50:14;;;;;;;30.65;17.33;;;;;;;8.90;50.10;100962.63;5031178;28;20021;-83
2021/01/21 11:53:32;;;;;;;22.85;15.00;;;;;;;9.03;49.83;100952.41;5031633;28;20086;-79
2021/01/21 11:56:10;;;;;;;23.15;16.15;;;;;;;8.77;49.89;100943.28;5031781;28;20047;-79
2021/01/21 11:59:09;;;;;;;21.77;14.35;;;;;;;8.95;49.51;100933.88;5035001;28;20556;-78
2021/01/21 12:01:41;;;;;;;25.98;15.07;;;;;;;8.99;50.90;100938.09;5035692;28;20036;-79
2021/01/21 12:04:10;;;;;;;26.38;16.55;;;;;;;9.13;50.49;100943.88;5052334;28;20086;-78
2021/01/21 12:06:43;;;;;;;35.38;19.45;;;;;;;8.69;50.17;100933.19;5035541;28;20029;-79
2021/01/21 12:09:52;;;;;;;22.33;14.15;;;;;;;9.17;49.05;100948.09;5035377;28;20049;-79
2021/01/21 12:12:26;;;;;;;27.17;20.20;;;;;;;8.61;49.43;100934.91;5035385;28;20100;-79
2021/01/21 12:15:15;;;;;;;27.73;17.58;;;;;;;8.48;50.83;100939.16;5035899;28;20483;-79
2021/01/21 12:21:02;;;;;;;21.90;14.20;;;;;;;8.55;50.91;100920.56;5035109;28;20096;-81
2021/01/21 12:23:38;;;;;;;26.08;16.10;;;;;;;8.63;50.75;100907.84;5034394;28;20045;-79
2021/01/21 12:26:10;;;;;;;24.02;15.00;;;;;;;8.79;50.55;100933.97;5033915;28;20115;-80
2021/01/21 12:28:42;;;;;;;;;;;;;;;8.90;50.49;100938.13;5034440;28;20044;-80
2021/01/21 12:31:25;;;;;;;23.42;15.48;;;;;;;9.04;50.11;100935.50;5035273;28;20003;-79
2021/01/21 12:34:18;;;;;;;32.60;19.02;;;;;;;9.28;49.07;100927.72;5033917;28;20030;-80
2021/01/21 12:36:51;;;;;;;29.90;20.48;;;;;;;8.66;50.38;100921.34;5034188;28;20040;-79
2021/01/21 12:39:31;;;;;;;25.88;17.60;;;;;;;8.77;50.40;100910.31;5033864;28;20413;-79
2021/01/21 12:45:18;;;;;;;24.60;14.55;;;;;;;8.56;51.90;100919.72;5035471;28;20052;-78
2021/01/21 12:48:01;;;;;;;18.40;12.75;;;;;;;8.50;50.59;100911.28;5033822;28;20057;-80
2021/01/21 12:51:01;;;;;;;20.92;12.85;;;;;;;8.51;50.94;100921.44;5033858;28;20107;-79
2021/01/21 12:53:34;;;;;;;62.35;36.33;;;;;;;8.64;50.55;100905.31;5033648;28;20033;-79
2021/01/21 12:56:12;;;;;;;77.90;45.92;;;;;;;8.74;50.15;100912.00;5033663;28;20031;-79
2021/01/21 12:58:38;;;;;;;33.60;21.05;;;;;;;8.68;51.47;100919.66;5034815;28;20124;-77
2021/01/21 13:11:08;;;;;;;25.17;15.47;;;;;;;8.75;51.01;100933.97;5034526;28;20462;-80
2021/01/21 13:16:55;;;;;;;27.15;16.20;;;;;;;8.78;50.99;100925.50;5034568;28;20069;-80
2021/01/21 13:22:59;;;;;;;29.03;16.07;;;;;;;8.69;50.72;100931.47;5030677;28;20143;-78
2021/01/21 13:25:25;;;;;;;34.13;19.23;;;;;;;8.70;49.98;100919.63;5036039;28;20065;-79
2021/01/21 13:28:18;;;;;;;23.95;14.45;;;;;;;9.23;49.17;100944.69;5050254;28;20171;-79
2021/01/21 13:30:49;;;;;;;26.50;17.63;;;;;;;9.53;48.33;100944.44;5034101;28;20041;-78
2021/01/21 13:33:39;;;;;;;29.13;16.75;;;;;;;9.18;48.81;100949.78;5034044;28;20040;-80
2021/01/21 13:36:38;;;;;;;31.45;18.35;;;;;;;9.23;49.90;100949.75;5034193;28;20057;-80
2021/01/21 13:39:09;;;;;;;55.08;35.63;;;;;;;8.91;50.65;100944.03;5034126;28;20030;-80
2021/01/21 13:42:12;;;;;;;46.67;30.65;;;;;;;8.79;51.21;100954.25;5033105;28;20033;-78
2021/01/21 13:45:05;;;;;;;66.28;37.63;;;;;;;8.25;52.39;100958.69;5032870;28;20494;-77
2021/01/21 13:47:30;;;;;;;68.90;39.05;;;;;;;8.33;52.14;100963.72;5032612;28;20091;-78
2021/01/21 13:53:18;;;;;;;35.33;21.63;;;;;;;8.07;52.64;100961.22;5033998;28;20060;-77
2021/01/21 13:55:58;;;;;;;95.82;52.35;;;;;;;8.06;53.19;100962.06;5033314;28;20499;-77
2021/01/21 13:58:37;;;;;;;89.20;43.35;;;;;;;7.88;54.20;100959.56;5033657;28;20022;-78
2021/01/21 14:01:06;;;;;;;53.35;33.35;;;;;;;7.86;55.02;100958.75;5033682;28;20033;-78
2021/01/21 14:03:45;;;;;;;56.38;33.72;;;;;;;7.73;53.96;100945.25;5032369;28;20025;-78